Time,TemperatureF,DewpointF,PressureIn,WindDirection,WindDirectionDegrees,WindSpeedMPH,WindSpeedGustMPH,Humidity,HourlyPrecipIn,Conditions,Clouds,dailyrainin,SoftwareType,DateUTC
2013-04-11 00:02:00,70.9,-34.3,29.52,South,180,11.4,-999.0,1,-99.99,,,0.00,Acu-Link.com,2013-04-11 05:02:00,
2013-04-11 00:17:00,71.1,-34.2,29.52,SSE,157,3.2,-999.0,1,-99.99,,,0.00,Acu-Link.com,2013-04-11 05:17:00,
2013-04-11 00:32:00,71.1,-34.2,29.53,ESE,112,2.7,-999.0,1,-99.99,,,0.00,Acu-Link.com,2013-04-11 05:32:00,
2013-04-11 00:47:00,71.1,-34.2,29.52,SE,135,5.8,-999.0,1,-99.99,,,0.00,Acu-Link.com,2013-04-11 05:47:00,
2013-04-11 01:02:00,71.2,-34.1,29.53,South,180,5.8,-999.0,1,-99.99,,,0.00,Acu-Link.com,2013-04-11 06:02:00,
2013-04-11 01:17:00,71.2,-34.1,29.53,SSW,202,1.1,-999.0,1,-99.99,,,0.00,Acu-Link.com,2013-04-11 06:17:00,
2013-04-11 01:33:00,71.2,-34.1,29.53,SSE,157,7.8,-999.0,1,-99.99,,,0.00,Acu-Link.com,2013-04-11 06:33:00,
2013-04-11 01:48:00,71.2,-34.1,29.53,South,180,5.8,-999.0,1,-99.99,,,0.00,Acu-Link.com,2013-04-11 06:48:00,
2013-04-11 02:03:00,71.2,-34.1,29.52,ESE,112,1.7,-999.0,1,-99.99,,,0.00,Acu-Link.com,2013-04-11 07:03:00,
2013-04-11 02:18:00,71.1,-34.2,29.51,SE,135,0.0,-999.0,1,-99.99,,,0.00,Acu-Link.com,2013-04-11 07:18:00,
2013-04-11 02:33:00,71.1,-34.2,29.50,SSE,157,1.1,-999.0,1,-99.99,,,0.00,Acu-Link.com,2013-04-11 07:33:00,
2013-04-11 02:48:00,71.1,-34.2,29.50,SSE,157,3.7,-999.0,1,-99.99,,,0.00,Acu-Link.com,2013-04-11 07:48:00,
2013-04-11 03:03:00,71.1,-34.2,29.49,SE,135,1.1,-999.0,1,-99.99,,,0.00,Acu-Link.com,2013-04-11 08:03:00,
2013-04-11 03:19:00,71.1,-34.2,29.49,SSE,157,2.2,-999.0,1,-99.99,,,0.00,Acu-Link.com,2013-04-11 08:19:00,
2013-04-11 03:34:00,71.1,-34.2,29.49,SE,135,0.0,-999.0,1,-99.99,,,0.00,Acu-Link.com,2013-04-11 08:34:00,
2013-04-11 03:49:00,70.5,-34.5,29.48,SE,135,0.0,-999.0,1,-99.99,,,0.00,Acu-Link.com,2013-04-11 08:49:00,
2013-04-11 04:04:00,70.3,-34.6,29.47,South,180,0.0,-999.0,1,-99.99,,,0.00,Acu-Link.com,2013-04-11 09:04:00,
2013-04-11 04:19:00,70.2,-34.7,29.47,SSE,157,2.7,-999.0,1,-99.99,,,0.00,Acu-Link.com,2013-04-11 09:19:00,
2013-04-11 04:34:00,70.0,-34.8,29.47,ESE,112,0.0,-999.0,1,-99.99,,,0.00,Acu-Link.com,2013-04-11 09:34:00,
2013-04-11 04:49:00,70.0,52.1,29.47,SSE,157,1.1,-999.0,53,-99.99,,,0.00,Acu-Link.com,2013-04-11 09:49:00,
2013-04-11 05:04:00,69.8,63.0,29.45,South,180,0.0,-999.0,79,-99.99,,,0.00,Acu-Link.com,2013-04-11 10:04:00,
2013-04-11 05:20:00,69.6,63.5,29.45,SW,225,4.2,-999.0,81,-99.99,,,0.00,Acu-Link.com,2013-04-11 10:20:00,
2013-04-11 05:35:00,69.4,68.2,29.45,ESE,112,1.1,-999.0,96,-99.99,,,0.00,Acu-Link.com,2013-04-11 10:35:00,
2013-04-11 05:50:00,69.4,68.8,29.45,SE,135,3.7,-999.0,98,-99.99,,,0.00,Acu-Link.com,2013-04-11 10:50:00,
2013-04-11 06:05:00,69.4,68.8,29.44,ESE,112,0.0,-999.0,98,-99.99,,,0.00,Acu-Link.com,2013-04-11 11:05:00,
2013-04-11 06:20:00,69.8,68.0,29.44,ESE,112,0.0,-999.0,94,-99.99,,,0.00,Acu-Link.com,2013-04-11 11:20:00,
2013-04-11 06:35:00,69.8,68.9,29.44,SE,135,0.0,-999.0,97,-99.99,,,0.00,Acu-Link.com,2013-04-11 11:35:00,
2013-04-11 06:50:00,70.0,67.9,29.44,ESE,112,0.0,-999.0,93,-99.99,,,0.00,Acu-Link.com,2013-04-11 11:50:00,
2013-04-11 07:06:00,70.3,52.3,29.44,ENE,67,1.7,-999.0,53,-99.99,,,0.00,Acu-Link.com,2013-04-11 12:06:00,
2013-04-11 07:51:00,72.1,-33.6,29.43,SSE,157,1.1,-999.0,1,-99.99,,,0.00,Acu-Link.com,2013-04-11 12:51:00,
2013-04-11 08:06:00,72.3,-33.4,29.43,SSE,157,0.0,-999.0,1,-99.99,,,0.00,Acu-Link.com,2013-04-11 13:06:00,
2013-04-11 08:21:00,72.5,-33.3,29.43,SE,135,2.2,-999.0,1,-99.99,,,0.00,Acu-Link.com,2013-04-11 13:21:00,
2013-04-11 08:36:00,72.7,-33.2,29.43,South,180,4.7,-999.0,1,-99.99,,,0.00,Acu-Link.com,2013-04-11 13:36:00,
2013-04-11 08:51:00,73.6,-32.7,29.43,SSW,202,4.7,-999.0,1,-99.99,,,0.00,Acu-Link.com,2013-04-11 13:51:00,
2013-04-11 09:06:00,73.9,-32.5,29.42,SSE,157,1.1,-999.0,1,-99.99,,,0.00,Acu-Link.com,2013-04-11 14:06:00,
2013-04-11 09:22:00,74.3,-32.2,29.41,South,180,5.8,-999.0,1,-99.99,,,0.00,Acu-Link.com,2013-04-11 14:22:00,
2013-04-11 09:37:00,74.1,-32.4,29.41,SSW,202,10.4,-999.0,1,-99.99,,,0.00,Acu-Link.com,2013-04-11 14:37:00,
2013-04-11 09:52:00,73.6,-32.7,29.41,South,180,6.3,-999.0,1,-99.99,,,0.00,Acu-Link.com,2013-04-11 14:52:00,
2013-04-11 10:07:00,64.2,-38.3,29.47,SSW,202,4.7,-999.0,1,-99.99,,,0.00,Acu-Link.com,2013-04-11 15:07:00,
2013-04-11 10:22:00,58.6,-41.7,29.45,NNW,337,4.7,-999.0,1,-99.99,,,0.01,Acu-Link.com,2013-04-11 15:22:00,
2013-04-11 10:37:00,56.1,54.4,29.48,North,0,7.3,-999.0,94,-99.99,,,0.39,Acu-Link.com,2013-04-11 15:37:00,
2013-04-11 11:07:00,56.3,55.7,29.50,WNW,292,3.2,-999.0,98,-99.99,,,0.42,Acu-Link.com,2013-04-11 16:07:00,
2013-04-11 11:22:00,55.9,55.3,29.50,WNW,292,0.0,-999.0,98,-99.99,,,0.43,Acu-Link.com,2013-04-11 16:22:00,
2013-04-11 11:38:00,55.8,55.2,29.49,West,270,7.3,-999.0,98,-99.99,,,0.43,Acu-Link.com,2013-04-11 16:38:00,
2013-04-11 11:53:00,55.6,55.0,29.49,WNW,292,4.2,-999.0,98,-99.99,,,0.46,Acu-Link.com,2013-04-11 16:53:00,
2013-04-11 12:08:00,55.0,54.4,29.51,NNE,22,0.0,-999.0,98,-99.99,,,0.49,Acu-Link.com,2013-04-11 17:08:00,
2013-04-11 12:23:00,54.1,53.5,29.50,North,0,5.3,-999.0,98,-99.99,,,0.58,Acu-Link.com,2013-04-11 17:23:00,
2013-04-11 12:38:00,54.0,53.4,29.48,NW,315,0.0,-999.0,98,-99.99,,,0.67,Acu-Link.com,2013-04-11 17:38:00,
2013-04-11 12:53:00,54.1,53.5,29.47,WNW,292,0.0,-999.0,98,-99.99,,,0.69,Acu-Link.com,2013-04-11 17:53:00,
2013-04-11 13:08:00,54.1,53.5,29.51,South,180,5.8,-999.0,98,-99.99,,,0.71,Acu-Link.com,2013-04-11 18:08:00,
2013-04-11 13:23:00,54.1,53.5,29.47,West,270,0.0,-999.0,98,-99.99,,,0.81,Acu-Link.com,2013-04-11 18:23:00,
2013-04-11 13:39:00,54.7,54.1,29.50,WSW,247,3.7,-999.0,98,-99.99,,,0.83,Acu-Link.com,2013-04-11 18:39:00,
2013-04-11 13:54:00,53.6,53.0,29.50,NNE,22,5.8,-999.0,98,-99.99,,,0.86,Acu-Link.com,2013-04-11 18:54:00,
2013-04-11 14:09:00,53.6,53.0,29.45,NE,45,0.0,-999.0,98,-99.99,,,0.90,Acu-Link.com,2013-04-11 19:09:00,
2013-04-11 14:24:00,54.1,53.5,29.42,ENE,67,0.0,-999.0,98,-99.99,,,0.92,Acu-Link.com,2013-04-11 19:24:00,
2013-04-11 14:39:00,55.0,54.4,29.39,NNW,337,8.9,-999.0,98,-99.99,,,0.93,Acu-Link.com,2013-04-11 19:39:00,
2013-04-11 14:54:00,56.7,56.1,29.38,ENE,67,0.0,-999.0,98,-99.99,,,0.93,Acu-Link.com,2013-04-11 19:54:00,
2013-04-11 15:09:00,56.1,39.7,29.39,NE,45,0.0,-999.0,54,-99.99,,,0.93,Acu-Link.com,2013-04-11 20:09:00,
2013-04-11 15:24:00,57.2,-30.4,29.39,East,90,0.0,-999.0,2,-99.99,,,0.93,Acu-Link.com,2013-04-11 20:24:00,
2013-04-11 15:40:00,56.7,-42.9,29.41,WNW,292,0.0,-999.0,1,-99.99,,,0.93,Acu-Link.com,2013-04-11 20:40:00,
2013-04-11 15:55:00,56.7,9.6,29.44,West,270,0.0,-999.0,15,-99.99,,,0.93,Acu-Link.com,2013-04-11 20:55:00,
2013-04-11 16:10:00,57.2,-42.6,29.46,WNW,292,4.2,-999.0,1,-99.99,,,0.93,Acu-Link.com,2013-04-11 21:10:00,
2013-04-11 16:25:00,57.0,-42.7,29.47,West,270,10.4,-999.0,1,-99.99,,,0.93,Acu-Link.com,2013-04-11 21:25:00,
2013-04-11 16:40:00,56.3,-43.1,29.49,WNW,292,6.8,-999.0,1,-99.99,,,0.93,Acu-Link.com,2013-04-11 21:40:00,
2013-04-11 16:55:00,55.6,-43.5,29.48,West,270,6.8,-999.0,1,-99.99,,,0.93,Acu-Link.com,2013-04-11 21:55:00,
2013-04-11 17:10:00,55.2,-43.8,29.47,NW,315,8.3,-999.0,1,-99.99,,,0.93,Acu-Link.com,2013-04-11 22:10:00,
2013-04-11 17:25:00,54.9,-19.1,29.50,WNW,292,0.0,-999.0,4,-99.99,,,0.93,Acu-Link.com,2013-04-11 22:25:00,
2013-04-11 17:40:00,54.3,-44.3,29.49,NNW,337,0.0,-999.0,1,-99.99,,,0.93,Acu-Link.com,2013-04-11 22:40:00,
2013-04-11 17:56:00,54.7,-44.1,29.49,NNW,337,0.0,-999.0,1,-99.99,,,0.93,Acu-Link.com,2013-04-11 22:56:00,
2013-04-11 18:11:00,54.7,-44.1,29.50,West,270,0.0,-999.0,1,-99.99,,,0.93,Acu-Link.com,2013-04-11 23:11:00,
2013-04-11 18:41:00,54.7,-44.1,29.51,WNW,292,5.3,-999.0,1,-99.99,,,0.93,Acu-Link.com,2013-04-11 23:41:00,
2013-04-11 18:56:00,54.1,-44.4,29.49,WNW,292,0.0,-999.0,1,-99.99,,,0.93,Acu-Link.com,2013-04-11 23:56:00,
2013-04-11 19:11:00,53.8,-44.6,29.50,NE,45,0.0,-999.0,1,-99.99,,,0.93,Acu-Link.com,2013-04-12 00:11:00,
2013-04-11 19:57:00,52.5,-45.4,29.50,West,270,0.0,-999.0,1,-99.99,,,0.93,Acu-Link.com,2013-04-12 00:57:00,
2013-04-11 20:12:00,52.3,-45.5,29.51,North,0,0.0,-999.0,1,-99.99,,,0.93,Acu-Link.com,2013-04-12 01:12:00,
2013-04-11 20:27:00,52.2,-45.6,29.53,West,270,0.0,-999.0,1,-99.99,,,0.93,Acu-Link.com,2013-04-12 01:27:00,
2013-04-11 20:42:00,52.0,-45.7,29.52,North,0,0.0,-999.0,1,-99.99,,,0.93,Acu-Link.com,2013-04-12 01:42:00,
2013-04-11 20:57:00,51.8,-45.8,29.53,West,270,0.0,-999.0,1,-99.99,,,0.93,Acu-Link.com,2013-04-12 01:57:00,
2013-04-11 21:12:00,51.8,-45.8,29.54,North,0,8.3,-999.0,1,-99.99,,,0.93,Acu-Link.com,2013-04-12 02:12:00,
2013-04-11 21:27:00,51.8,-45.8,29.53,NW,315,0.0,-999.0,1,-99.99,,,0.93,Acu-Link.com,2013-04-12 02:27:00,
2013-04-11 21:43:00,51.6,-46.0,29.55,West,270,0.0,-999.0,1,-99.99,,,0.93,Acu-Link.com,2013-04-12 02:43:00,
2013-04-11 21:58:00,51.6,-46.0,29.57,NNW,337,0.0,-999.0,1,-99.99,,,0.93,Acu-Link.com,2013-04-12 02:58:00,
2013-04-11 22:13:00,51.6,-46.0,29.58,NW,315,0.0,-999.0,1,-99.99,,,0.93,Acu-Link.com,2013-04-12 03:13:00,
2013-04-11 22:28:00,51.3,-46.2,29.58,ENE,67,0.0,-999.0,1,-99.99,,,0.93,Acu-Link.com,2013-04-12 03:28:00,
2013-04-11 22:43:00,51.3,-46.2,29.59,West,270,0.0,-999.0,1,-99.99,,,0.93,Acu-Link.com,2013-04-12 03:43:00,
2013-04-11 22:58:00,50.7,-46.5,29.59,NNW,337,0.0,-999.0,1,-99.99,,,0.93,Acu-Link.com,2013-04-12 03:58:00,
2013-04-11 23:13:00,50.4,-46.7,29.60,North,0,0.0,-999.0,1,-99.99,,,0.93,Acu-Link.com,2013-04-12 04:13:00,
2013-04-11 23:29:00,49.3,-47.4,29.60,NNE,22,0.0,-999.0,1,-99.99,,,0.93,Acu-Link.com,2013-04-12 04:29:00,
2013-04-11 23:44:00,48.2,-48.1,29.60,NNW,337,0.0,-999.0,1,-99.99,,,0.93,Acu-Link.com,2013-04-12 04:44:00,
2013-04-11 23:59:00,47.5,-48.5,29.60,West,270,0.0,-999.0,1,-99.99,,,0.93,Acu-Link.com,2013-04-12 04:59:00,